Aeroporto :
LOGIN :

Iscrizione | Disclaimer

   EN    FR    IT 

 










Sommario :    VFR   VFR Marginale   IFR   IFR Intensivo   IFR Molto Intensivo
Visibilità : 
Base nubi : 
>= 8 km
>= 3000ft
5 / 8 km
1000 / 3000 ft
1500m / 5 km
500 / 1000 ft
800 / 1500m
200 / 500 ft
< 800m
< 200 ft
Simboli :   Temporali  Nebbia  Neve Forte  Precipitazioni Forti  Vento > 20 kt
SIGMETs :   Varie  Temporali  Ghiacco  Turbolenza  Onda orograficha  Ceneri Vulcaniche






- Altitudine del aeroporto : 781 ft
- Codice IATA : SKP


LWSK - Skopje

ULTIMO METAR :
  • 291330Z VRB03KT CAVOK 11/M07 Q1019 NOSIG

METARs OBSOLETI :
  • 291230Z 09001KT CAVOK 10/M08 Q1019 NOSIG
  • 291200Z 32002KT CAVOK 10/M07 Q1020 NOSIG
  • 291100Z VRB03KT CAVOK 09/M06 Q1021 NOSIG

TAF TAF LWSK
Valido dal 29 a 12 ore il 01 a 12 ore UTC


291130Z 2912/0112 VRB03KT CAVOK



MetMap, La meteo Aeronautica in un colpo d'occhio ! - Copyright ORBIFLY Dicembre 2007 - Disclaimer

ORBIFLY MET'MAP TEAM :

Programmazione e sviluppo : Alexandra Zaïnal
Concezione : Baudouin d'Aumeries
Aiuto per la programmazione : Marc-Olivier Méhu
Supporto tecnico e logistico : Manuel Goepfert
Aiuto per la traduzione : Arnaldo La Scala

Contatto : metmap@orbifly.com




FONTI E CREDITI :

   NOAA